»·PEaware :: N416JK KSBA-KSNA

N416JK :: KSBA-KSNA

FLIGHT INFORMATION

Flight Status: Arrived
Operator: Privately registered:
United States
More flights under this callsign
Pilot: John K. (4202)
Aircraft: CESSNA 206 STATIONAIR
(C206)
More flights by this aircraft type
Origin: KSBA Santa Barbara Mun
United States
Destination: KSNA John Wayne-Orange Co
United States
More flights between these airports :: More routes between these airports
Route: +KWANG CMA VNY V186 BAYJY V363 POXKU V8 SLI
File this flight plan on PilotEdge
Remarks: TEC ROUTE SBAP6
Altitude:
(Current/Filed)
5,000ft
Speed:
(Current/Filed)
140kts
Departed: 08-Dec-19 02:26 PM
Arrived: 08-Dec-19 03:30 PM
Distance/Time
Traveled:
108nm/1:03
Distance/Time
To Go:
Arrived

Flight Plot

Page will automatically refresh every two minutes.


Map Options




Map Legend


Flown Route
Filed Route
Departure Airport
Arrival Airport
Navaid (VOR, NDB)
Fix

Horizontal Profiles

Position Reports

Time Latitude Longitude Heading Altitude Ground
Speed
08-Dec-19 14:12 34.432446 -119.835538 70 17ft 0kts
08-Dec-19 14:13 34.432446 -119.835538 70 17ft 0kts
08-Dec-19 14:14 34.432446 -119.835538 70 17ft 0kts
08-Dec-19 14:15 34.432446 -119.835538 70 17ft 0kts
08-Dec-19 14:16 34.432446 -119.835538 70 17ft 0kts
08-Dec-19 14:17 34.432446 -119.835538 70 17ft 0kts
08-Dec-19 14:18 34.432446 -119.835538 70 17ft 0kts
08-Dec-19 14:19 34.432446 -119.835538 70 17ft 0kts
08-Dec-19 14:20 34.432446 -119.835538 70 17ft 0kts
08-Dec-19 14:21 34.432446 -119.835538 70 17ft 0kts
08-Dec-19 14:22 34.432446 -119.835538 70 17ft 0kts
08-Dec-19 14:23 34.432064 -119.835396 184 17ft 11kts
08-Dec-19 14:24 34.429649 -119.835309 182 16ft 0kts
08-Dec-19 14:25 34.427880 -119.837122 267 17ft 44kts
08-Dec-19 14:26 34.426071 -119.862716 261 913ft 101kts
08-Dec-19 14:27 34.423125 -119.899071 262 1516ft 108kts
08-Dec-19 14:28 34.420571 -119.935620 262 2113ft 110kts
08-Dec-19 14:29 34.414985 -119.971676 215 2710ft 113kts
08-Dec-19 14:30 34.384563 -119.958911 156 3324ft 123kts
08-Dec-19 14:31 34.364698 -119.927390 100 3938ft 135kts
08-Dec-19 14:32 34.359915 -119.882619 103 4559ft 133kts
08-Dec-19 14:33 34.353983 -119.837442 103 4937ft 145kts
08-Dec-19 14:34 34.347208 -119.787894 103 4972ft 152kts
08-Dec-19 14:35 34.340290 -119.737901 103 4972ft 149kts
08-Dec-19 14:36 34.333403 -119.688313 103 4972ft 148kts
08-Dec-19 14:37 34.326594 -119.639513 104 4972ft 147kts
08-Dec-19 14:38 34.319769 -119.590712 104 4972ft 147kts
08-Dec-19 14:39 34.312982 -119.542290 104 4972ft 147kts
08-Dec-19 14:40 34.303968 -119.492541 101 4967ft 155kts
08-Dec-19 14:41 34.292570 -119.442332 102 4974ft 155kts
08-Dec-19 14:42 34.281029 -119.391947 102 4974ft 155kts
08-Dec-19 14:43 34.269614 -119.342187 102 4973ft 155kts
08-Dec-19 14:44 34.258298 -119.292131 102 4972ft 155kts
08-Dec-19 14:45 34.246832 -119.242273 102 4973ft 155kts
08-Dec-19 14:46 34.235805 -119.194123 110 4971ft 148kts
08-Dec-19 14:47 34.224536 -119.145843 110 4973ft 149kts
08-Dec-19 14:48 34.213502 -119.098270 107 4980ft 147kts
08-Dec-19 14:49 34.213524 -119.048134 91 4980ft 149kts
08-Dec-19 14:50 34.214502 -118.998057 91 4981ft 149kts
08-Dec-19 14:51 34.215468 -118.948014 91 4980ft 149kts
08-Dec-19 14:52 34.216408 -118.898439 91 4981ft 147kts
08-Dec-19 14:53 34.217321 -118.849136 91 4981ft 147kts
08-Dec-19 14:54 34.218216 -118.799755 91 4981ft 147kts
08-Dec-19 14:56 34.219093 -118.750354 91 4981ft 147kts
08-Dec-19 14:57 34.219926 -118.701887 91 4971ft 144kts
08-Dec-19 14:58 34.220754 -118.653836 91 4962ft 144kts
08-Dec-19 14:59 34.221460 -118.611301 92 4962ft 142kts
08-Dec-19 15:00 34.222097 -118.571899 92 4962ft 141kts
08-Dec-19 15:01 34.222809 -118.527037 92 4962ft 141kts
08-Dec-19 15:02 34.220305 -118.482449 111 4962ft 138kts
08-Dec-19 15:03 34.207899 -118.440804 112 4963ft 138kts
08-Dec-19 15:04 34.195288 -118.399170 112 4981ft 143kts
08-Dec-19 15:05 34.181529 -118.353881 112 4982ft 146kts
08-Dec-19 15:06 34.167739 -118.308033 111 4981ft 147kts
08-Dec-19 15:07 34.153980 -118.262727 109 4981ft 137kts
08-Dec-19 15:08 34.141011 -118.220170 107 4972ft 136kts
08-Dec-19 15:09 34.127715 -118.176150 113 4903ft 146kts
08-Dec-19 15:10 34.113363 -118.129560 114 4232ft 154kts
08-Dec-19 15:11 34.099096 -118.083106 114 4022ft 145kts
08-Dec-19 15:12 34.085464 -118.038718 113 4009ft 138kts
08-Dec-19 15:13 34.072134 -117.995366 113 4009ft 137kts
08-Dec-19 15:14 34.058834 -117.952155 113 4009ft 137kts
08-Dec-19 15:14 34.047701 -117.916031 113 4009ft 137kts
08-Dec-19 15:16 34.033372 -117.869606 113 4009ft 137kts
08-Dec-19 15:17 34.020070 -117.826595 113 4009ft 136kts
08-Dec-19 15:17 34.007690 -117.791569 142 4001ft 135kts
08-Dec-19 15:18 33.971828 -117.785067 179 4009ft 132kts
08-Dec-19 15:20 33.929078 -117.783971 179 3991ft 132kts
08-Dec-19 15:20 33.905311 -117.766272 120 3991ft 136kts
08-Dec-19 15:21 33.880152 -117.741828 189 4011ft 129kts
08-Dec-19 15:22 33.846454 -117.758294 212 3671ft 141kts
08-Dec-19 15:23 33.812527 -117.782015 207 2972ft 121kts
08-Dec-19 15:24 33.785867 -117.798890 207 2493ft 110kts
08-Dec-19 15:25 33.758479 -117.816284 207 2010ft 110kts
08-Dec-19 15:26 33.734529 -117.831507 208 1406ft 90kts
08-Dec-19 15:27 33.712859 -117.845258 208 785ft 83kts
08-Dec-19 15:28 33.692733 -117.858019 208 400ft 76kts
08-Dec-19 15:29 33.678164 -117.867323 223 60ft 18kts
08-Dec-19 15:30 33.678115 -117.868542 262 60ft 7kts

Navigation Log

Ident Type
Flight plan parsing failed, navigation log unavailable